createdAt,value
2018-07-21T00:00:16.016Z,5.15
2018-07-21T00:01:19.482Z,4.92
2018-07-21T00:02:22.698Z,5.03
2018-07-21T00:03:26.673Z,4.42
2018-07-21T00:04:30.812Z,5.03
2018-07-21T00:05:34.340Z,4.72
2018-07-21T00:06:38.072Z,5.05
2018-07-21T00:07:41.615Z,4.90
2018-07-21T00:08:49.124Z,4.80
2018-07-21T00:09:52.559Z,4.85
2018-07-21T00:10:56.173Z,5.17
2018-07-21T00:11:59.662Z,5.45
2018-07-21T00:13:03.123Z,5.75
2018-07-21T00:14:06.410Z,5.92
2018-07-21T00:15:10.030Z,6.17
2018-07-21T00:16:13.631Z,5.58
2018-07-21T00:17:17.075Z,5.83
2018-07-21T00:18:20.634Z,5.65
2018-07-21T00:19:24.409Z,5.25
2018-07-21T00:20:27.995Z,5.15
2018-07-21T00:21:31.974Z,5.75
2018-07-21T00:22:36.032Z,6.62
2018-07-21T00:23:39.640Z,6.70
2018-07-21T00:24:43.945Z,6.75
2018-07-21T00:25:47.398Z,6.55
2018-07-21T00:26:51.242Z,6.58
2018-07-21T00:27:54.924Z,7.35
2018-07-21T00:28:58.474Z,7.55
2018-07-21T00:30:02.879Z,7.53
2018-07-21T00:31:06.473Z,7.72
2018-07-21T00:32:10.432Z,6.45
2018-07-21T00:33:13.914Z,7.33
2018-07-21T00:34:17.384Z,6.47
2018-07-21T00:35:20.938Z,7.62
2018-07-21T00:36:24.433Z,7.08
2018-07-21T00:37:28.035Z,6.80
2018-07-21T00:38:31.565Z,6.58
2018-07-21T00:39:35.023Z,6.85
2018-07-21T00:40:38.480Z,6.95
2018-07-21T00:41:42.566Z,7.00
2018-07-21T00:42:46.134Z,6.83
2018-07-21T00:43:49.588Z,6.75
2018-07-21T00:44:53.958Z,6.62
2018-07-21T00:45:57.984Z,6.37
2018-07-21T00:47:01.447Z,6.20
2018-07-21T00:48:05.318Z,6.08
2018-07-21T00:49:09.394Z,7.37
2018-07-21T00:50:12.893Z,6.37
2018-07-21T00:51:16.374Z,6.35
2018-07-21T00:52:19.987Z,5.97
2018-07-21T00:53:23.735Z,5.72
2018-07-21T00:54:26.897Z,5.58
2018-07-21T00:55:30.645Z,5.75
2018-07-21T00:56:34.176Z,6.08
2018-07-21T00:57:37.685Z,5.35
2018-07-21T00:58:41.272Z,5.78
2018-07-21T00:59:45.270Z,6.12
2018-07-21T01:00:48.849Z,5.40
2018-07-21T01:01:52.370Z,6.58
2018-07-21T01:02:55.944Z,5.85
2018-07-21T01:03:59.538Z,6.37
2018-07-21T01:05:04.298Z,6.33
2018-07-21T01:06:07.829Z,6.65
2018-07-21T01:07:11.605Z,7.12
2018-07-21T01:08:16.189Z,6.92
2018-07-21T01:09:19.689Z,6.40
2018-07-21T01:10:23.745Z,5.60
2018-07-21T01:11:27.265Z,5.50
2018-07-21T01:12:30.849Z,5.95
2018-07-21T01:13:34.333Z,5.40
2018-07-21T01:14:37.832Z,5.90
2018-07-21T01:15:41.387Z,6.00
2018-07-21T01:16:44.906Z,6.20
2018-07-21T01:17:48.379Z,5.53
2018-07-21T01:18:51.914Z,6.45
2018-07-21T01:19:55.524Z,6.08
2018-07-21T01:20:59.156Z,6.60
2018-07-21T01:22:02.833Z,6.37
2018-07-21T01:23:07.310Z,6.20
2018-07-21T01:24:11.648Z,5.12
2018-07-21T01:25:15.162Z,6.35
2018-07-21T01:26:18.763Z,5.42
2018-07-21T01:27:22.371Z,6.83
2018-07-21T01:28:26.682Z,6.42
2018-07-21T01:29:30.351Z,5.87
2018-07-21T01:30:33.828Z,5.42
2018-07-21T01:31:37.535Z,5.45
2018-07-21T01:32:41.218Z,5.67
2018-07-21T01:33:44.717Z,6.47
2018-07-21T01:34:48.300Z,6.20
2018-07-21T01:35:52.625Z,5.47
2018-07-21T01:36:56.699Z,5.85
2018-07-21T01:38:00.239Z,5.50
2018-07-21T01:39:04.753Z,5.75
2018-07-21T01:40:08.257Z,6.10
2018-07-21T01:41:11.820Z,5.85
2018-07-21T01:42:15.655Z,5.87
2018-07-21T01:43:19.399Z,5.28
2018-07-21T01:44:22.939Z,5.50
2018-07-21T01:45:26.833Z,6.17
2018-07-21T01:46:30.432Z,5.60
2018-07-21T01:47:34.081Z,5.78
2018-07-21T01:48:37.552Z,6.12
2018-07-21T01:49:41.285Z,5.72
2018-07-21T01:50:44.804Z,5.90
2018-07-21T01:51:48.280Z,6.22
2018-07-21T01:52:51.777Z,5.87
2018-07-21T01:53:55.254Z,6.40
2018-07-21T01:54:58.956Z,6.40
2018-07-21T01:56:02.550Z,6.08
2018-07-21T01:57:06.577Z,7.05
2018-07-21T01:58:10.083Z,6.00
2018-07-21T01:59:13.545Z,5.90
2018-07-21T02:00:17.205Z,6.45
2018-07-21T02:01:20.712Z,5.50
2018-07-21T02:02:24.236Z,5.92
2018-07-21T02:03:27.718Z,6.28
2018-07-21T02:04:31.198Z,6.50
2018-07-21T02:05:34.799Z,6.92
2018-07-21T02:06:38.481Z,5.95
2018-07-21T02:07:43.191Z,5.83
2018-07-21T02:08:46.843Z,6.05
2018-07-21T02:09:50.901Z,6.55
2018-07-21T02:10:54.444Z,5.90
2018-07-21T02:11:58.542Z,5.92
2018-07-21T02:13:02.144Z,5.92
2018-07-21T02:14:05.686Z,5.95
2018-07-21T02:15:09.184Z,6.58
2018-07-21T02:16:12.778Z,6.47
2018-07-21T02:17:16.821Z,6.20
2018-07-21T02:18:20.790Z,6.28
2018-07-21T02:19:24.236Z,6.08
2018-07-21T02:20:27.808Z,6.33
2018-07-21T02:21:31.364Z,6.40
2018-07-21T02:22:35.332Z,5.87
2018-07-21T02:23:38.924Z,6.35
2018-07-21T02:24:42.770Z,6.50
2018-07-21T02:25:46.271Z,6.72
2018-07-21T02:26:49.706Z,6.33
2018-07-21T02:27:53.231Z,6.20
2018-07-21T02:28:56.433Z,6.42
2018-07-21T02:30:00.850Z,6.42
2018-07-21T02:31:04.952Z,6.97
2018-07-21T02:32:08.491Z,6.75
2018-07-21T02:33:12.187Z,6.35
2018-07-21T02:34:15.652Z,6.67
2018-07-21T02:35:19.102Z,7.37
2018-07-21T02:36:22.584Z,6.47
2018-07-21T02:37:26.059Z,6.83
2018-07-21T02:38:29.522Z,6.50
2018-07-21T02:39:33.083Z,7.55
2018-07-21T02:40:36.616Z,6.80
2018-07-21T02:41:40.126Z,6.25
2018-07-21T02:42:44.327Z,6.12
2018-07-21T02:43:48.113Z,6.45
2018-07-21T02:44:51.704Z,6.12
2018-07-21T02:45:55.170Z,5.75
2018-07-21T02:46:58.661Z,6.42
2018-07-21T02:48:02.187Z,6.80
2018-07-21T02:49:06.796Z,6.85
2018-07-21T02:50:10.275Z,6.80
2018-07-21T02:51:13.788Z,6.28
2018-07-21T02:52:17.360Z,6.35
2018-07-21T02:53:20.864Z,6.90
2018-07-21T02:54:24.315Z,7.20
2018-07-21T02:55:27.917Z,5.83
2018-07-21T02:56:31.605Z,6.50
2018-07-21T02:57:35.049Z,6.40
2018-07-21T02:58:38.495Z,7.08
2018-07-21T02:59:41.952Z,6.25
2018-07-21T03:00:45.396Z,6.72
2018-07-21T03:01:48.886Z,6.67
2018-07-21T03:02:52.353Z,7.08
2018-07-21T03:03:56.078Z,6.75
2018-07-21T03:04:59.658Z,6.95
2018-07-21T03:06:03.280Z,7.03
2018-07-21T03:07:06.799Z,6.95
2018-07-21T03:08:10.542Z,6.90
2018-07-21T03:09:14.627Z,7.10
2018-07-21T03:10:18.100Z,7.50
2018-07-21T03:11:21.560Z,7.10
2018-07-21T03:12:25.008Z,8.05
2018-07-21T03:13:28.469Z,7.15
2018-07-21T03:14:31.941Z,8.18
2018-07-21T03:15:35.626Z,8.03
2018-07-21T03:16:39.108Z,7.03
2018-07-21T03:17:43.141Z,7.35
2018-07-21T03:18:46.605Z,7.80
2018-07-21T03:19:50.097Z,7.85
2018-07-21T03:20:53.560Z,7.85
2018-07-21T03:21:57.049Z,7.28
2018-07-21T03:23:00.567Z,8.08
2018-07-21T03:24:03.998Z,7.58
2018-07-21T03:25:07.469Z,7.60
2018-07-21T03:26:11.121Z,8.80
2018-07-21T03:27:14.603Z,8.68
2018-07-21T03:28:18.224Z,8.15
2018-07-21T03:29:22.405Z,8.68
2018-07-21T03:30:26.469Z,7.95
2018-07-21T03:31:30.385Z,8.33
2018-07-21T03:32:33.890Z,7.62
2018-07-21T03:33:37.315Z,8.93
2018-07-21T03:34:40.973Z,9.48
2018-07-21T03:35:44.566Z,10.18
2018-07-21T03:36:48.655Z,9.78
2018-07-21T03:37:52.117Z,10.28
2018-07-21T03:38:55.819Z,9.05
2018-07-21T03:40:00.645Z,8.60
2018-07-21T03:41:04.399Z,9.13
2018-07-21T03:42:07.864Z,7.75
2018-07-21T03:43:11.591Z,8.78
2018-07-21T03:44:15.507Z,8.85
2018-07-21T03:45:19.073Z,8.90
2018-07-21T03:46:22.518Z,9.13
2018-07-21T03:47:26.058Z,10.05
2018-07-21T03:48:29.570Z,10.70
2018-07-21T03:49:33.986Z,10.75
2018-07-21T03:50:37.420Z,9.58
2018-07-21T03:51:41.239Z,10.68
2018-07-21T03:52:44.694Z,9.93
2018-07-21T03:53:48.138Z,10.38
2018-07-21T03:54:51.640Z,10.15
2018-07-21T03:55:55.095Z,10.15
2018-07-21T03:56:58.783Z,10.85
2018-07-21T03:58:02.286Z,11.25
2018-07-21T03:59:05.761Z,11.25
2018-07-21T04:00:09.301Z,10.45
2018-07-21T04:01:12.910Z,10.30
2018-07-21T04:02:16.980Z,10.72
2018-07-21T04:03:20.475Z,10.68
2018-07-21T04:04:24.918Z,10.65
2018-07-21T04:05:28.418Z,9.73
2018-07-21T04:06:31.946Z,10.32
2018-07-21T04:07:36.119Z,10.10
2018-07-21T04:08:39.623Z,10.25
2018-07-21T04:09:43.902Z,10.70
2018-07-21T04:10:47.392Z,10.08
2018-07-21T04:11:50.890Z,10.78
2018-07-21T04:12:54.394Z,9.88
2018-07-21T04:13:57.894Z,9.83
2018-07-21T04:15:01.575Z,10.00
2018-07-21T04:16:05.071Z,9.70
2018-07-21T04:17:12.826Z,10.58
2018-07-21T04:18:17.067Z,10.08
2018-07-21T04:19:20.627Z,9.93
2018-07-21T04:20:26.027Z,9.95
2018-07-21T04:21:29.507Z,9.83
2018-07-21T04:22:33.012Z,10.03
2018-07-21T04:23:36.489Z,10.88
2018-07-21T04:24:39.966Z,9.98
2018-07-21T04:25:43.459Z,9.35
2018-07-21T04:26:46.966Z,9.70
2018-07-21T04:27:50.537Z,9.95
2018-07-21T04:28:53.994Z,10.38
2018-07-21T04:29:57.551Z,9.95
2018-07-21T04:31:01.223Z,9.35
2018-07-21T04:32:04.700Z,9.88
2018-07-21T04:33:08.231Z,10.98
2018-07-21T04:34:11.831Z,10.05
2018-07-21T04:35:15.321Z,10.03
2018-07-21T04:36:19.057Z,11.30
2018-07-21T04:37:22.650Z,10.80
2018-07-21T04:38:26.156Z,10.28
2018-07-21T04:39:29.629Z,10.60
2018-07-21T04:40:33.331Z,10.00
2018-07-21T04:41:36.771Z,10.13
2018-07-21T04:42:40.272Z,10.88
2018-07-21T04:43:43.728Z,11.55
2018-07-21T04:44:47.197Z,10.93
2018-07-21T04:45:50.678Z,10.68
2018-07-21T04:46:54.197Z,10.98
2018-07-21T04:47:59.061Z,10.98
2018-07-21T04:49:04.462Z,10.72
2018-07-21T04:50:07.984Z,11.10
2018-07-21T04:51:11.796Z,10.70
2018-07-21T04:52:15.266Z,11.33
2018-07-21T04:53:19.064Z,11.33
2018-07-21T04:54:22.511Z,11.05
2018-07-21T04:55:26.368Z,11.33
2018-07-21T04:56:30.068Z,9.90
2018-07-21T04:57:33.529Z,10.58
2018-07-21T04:58:36.993Z,9.83
2018-07-21T04:59:40.711Z,10.48
2018-07-21T05:00:44.971Z,10.23
2018-07-21T05:01:48.454Z,10.43
2018-07-21T05:02:51.896Z,9.75
2018-07-21T05:03:55.430Z,10.55
2018-07-21T05:04:59.139Z,9.93
2018-07-21T05:06:03.698Z,9.60
2018-07-21T05:07:07.257Z,9.40
2018-07-21T05:08:10.987Z,10.43
2018-07-21T05:09:14.505Z,10.45
2018-07-21T05:10:18.062Z,10.00
2018-07-21T05:11:22.163Z,11.83
2018-07-21T05:12:25.726Z,11.25
2018-07-21T05:13:29.213Z,10.15
2018-07-21T05:14:32.739Z,10.65
2018-07-21T05:15:36.966Z,11.00
2018-07-21T05:16:41.160Z,10.85
2018-07-21T05:17:44.634Z,10.20
2018-07-21T05:18:48.107Z,9.63
2018-07-21T05:19:51.642Z,10.18
2018-07-21T05:20:55.182Z,10.65
2018-07-21T05:21:58.636Z,10.05
2018-07-21T05:23:02.139Z,10.08
2018-07-21T05:24:06.711Z,9.48
2018-07-21T05:25:10.235Z,10.08
2018-07-21T05:26:13.727Z,10.43
2018-07-21T05:27:17.850Z,10.13
2018-07-21T05:28:22.103Z,9.65
2018-07-21T05:29:25.708Z,9.65
2018-07-21T05:30:29.193Z,11.03
2018-07-21T05:31:32.667Z,9.90
2018-07-21T05:32:36.136Z,10.40
2018-07-21T05:33:39.682Z,10.32
2018-07-21T05:34:43.248Z,9.30
2018-07-21T05:35:46.730Z,9.85
2018-07-21T05:36:51.393Z,10.00
2018-07-21T05:37:55.080Z,10.68
2018-07-21T05:38:58.661Z,10.28
2018-07-21T05:40:02.158Z,10.40
2018-07-21T05:41:05.639Z,9.98
2018-07-21T05:42:09.386Z,10.18
2018-07-21T05:43:13.089Z,10.30
2018-07-21T05:44:16.789Z,10.80
2018-07-21T05:45:20.243Z,11.45
2018-07-21T05:46:23.843Z,10.25
2018-07-21T05:47:27.342Z,10.53
2018-07-21T05:48:31.347Z,10.70
2018-07-21T05:49:34.920Z,11.43
2018-07-21T05:50:38.419Z,10.80
2018-07-21T05:51:41.997Z,11.03
2018-07-21T05:52:45.500Z,11.38
2018-07-21T05:53:49.057Z,10.78
2018-07-21T05:54:52.751Z,11.08
2018-07-21T05:55:56.601Z,10.55
2018-07-21T05:57:01.037Z,11.35
2018-07-21T05:58:04.801Z,10.60
2018-07-21T05:59:08.448Z,10.85
2018-07-21T06:00:13.379Z,11.53
2018-07-21T06:01:17.799Z,10.75
2018-07-21T06:02:21.275Z,10.98
2018-07-21T06:03:24.916Z,10.80
2018-07-21T06:04:28.456Z,11.05
2018-07-21T06:05:32.074Z,10.60
2018-07-21T06:06:35.744Z,10.82
2018-07-21T06:07:39.218Z,10.88
2018-07-21T06:08:43.321Z,10.98
2018-07-21T06:09:46.810Z,11.00
2018-07-21T06:10:50.430Z,10.48
2018-07-21T06:11:54.607Z,11.05
2018-07-21T06:12:58.229Z,10.15
2018-07-21T06:14:01.726Z,10.60
2018-07-21T06:15:05.937Z,10.65
2018-07-21T06:16:09.604Z,11.15
2018-07-21T06:17:13.408Z,10.60
2018-07-21T06:18:17.048Z,10.00
2018-07-21T06:19:20.629Z,10.20
2018-07-21T06:20:24.230Z,9.40
2018-07-21T06:21:27.737Z,9.93
2018-07-21T06:22:31.495Z,9.20
2018-07-21T06:23:35.102Z,9.55
2018-07-21T06:24:38.844Z,10.08
2018-07-21T06:25:42.613Z,9.55
2018-07-21T06:26:46.147Z,9.73
2018-07-21T06:27:49.822Z,9.23
2018-07-21T06:28:53.995Z,9.20
2018-07-21T06:29:57.540Z,8.75
2018-07-21T06:31:01.894Z,9.75
2018-07-21T06:32:06.203Z,9.48
2018-07-21T06:33:09.714Z,9.50
2018-07-21T06:34:12.991Z,9.13
2018-07-21T06:35:16.771Z,9.28
2018-07-21T06:36:20.536Z,9.55
2018-07-21T06:37:25.862Z,9.68
2018-07-21T06:38:29.588Z,9.75
2018-07-21T06:39:33.404Z,9.85
2018-07-21T06:40:37.126Z,9.50
2018-07-21T06:41:41.035Z,9.33
2018-07-21T06:42:44.584Z,9.93
2018-07-21T06:43:48.209Z,9.75
2018-07-21T06:44:51.690Z,10.03
2018-07-21T06:45:55.157Z,9.78
2018-07-21T06:46:58.643Z,9.48
2018-07-21T06:48:02.134Z,10.13
2018-07-21T06:49:07.132Z,10.25
2018-07-21T07:03:12.263Z,10.55
2018-07-21T07:04:16.178Z,10.15
2018-07-21T07:05:21.581Z,10.48
2018-07-21T07:06:25.669Z,10.93
2018-07-21T07:07:29.802Z,10.30
2018-07-21T07:08:34.204Z,11.48
2018-07-21T07:09:38.346Z,9.83
2018-07-21T07:10:42.387Z,11.05
2018-07-21T07:11:46.481Z,10.58
2018-07-21T07:12:52.770Z,10.82
2018-07-21T07:13:56.669Z,11.00
2018-07-21T07:15:01.455Z,10.55
2018-07-21T07:16:06.710Z,10.72
2018-07-21T07:17:11.853Z,11.20
2018-07-21T07:18:15.759Z,11.33
2018-07-21T07:19:20.159Z,11.38
2018-07-21T07:20:24.285Z,11.20
2018-07-21T07:21:28.414Z,11.00
2018-07-21T07:22:32.376Z,10.63
2018-07-21T07:23:36.867Z,11.15
2018-07-21T07:24:41.248Z,10.80
2018-07-21T07:25:45.310Z,10.75
2018-07-21T07:26:49.602Z,10.63
2018-07-21T07:27:53.008Z,11.05
2018-07-21T07:28:57.020Z,11.80
2018-07-21T07:30:00.984Z,10.38
2018-07-21T07:31:05.947Z,11.28
2018-07-21T07:32:10.057Z,12.35
2018-07-21T07:33:14.648Z,11.50
2018-07-21T07:34:19.833Z,11.57
2018-07-21T07:35:23.849Z,11.43
2018-07-21T07:36:27.790Z,11.68
2018-07-21T07:37:31.666Z,12.13
2018-07-21T07:38:35.602Z,12.18
2018-07-21T07:39:39.692Z,12.13
2018-07-21T07:40:43.755Z,11.57
2018-07-21T07:41:47.957Z,11.75
2018-07-21T07:42:52.036Z,11.45
2018-07-21T07:43:56.065Z,11.00
2018-07-21T07:45:01.002Z,11.73
2018-07-21T07:46:07.051Z,12.28
2018-07-21T07:47:11.336Z,11.97
2018-07-21T07:48:15.396Z,10.93
2018-07-21T07:49:19.361Z,11.57
2018-07-21T07:50:23.236Z,11.73
2018-07-21T07:51:27.259Z,12.53
2018-07-21T07:52:31.207Z,11.90
2018-07-21T07:53:35.099Z,11.53
2018-07-21T07:54:39.115Z,10.50
2018-07-21T07:55:42.950Z,12.05
2018-07-21T07:56:48.244Z,11.45
2018-07-21T07:57:52.125Z,11.73
2018-07-21T07:58:56.083Z,11.65
2018-07-21T08:00:00.525Z,12.47
2018-07-21T08:01:04.652Z,12.35
2018-07-21T08:02:08.589Z,12.45
2018-07-21T08:03:13.034Z,12.07
2018-07-21T08:04:17.321Z,10.93
2018-07-21T08:05:21.708Z,10.53
2018-07-21T08:06:25.591Z,10.55
2018-07-21T08:07:29.763Z,11.08
2018-07-21T08:08:33.610Z,11.73
2018-07-21T08:09:38.124Z,11.10
2018-07-21T08:10:41.983Z,10.98
2018-07-21T08:11:46.525Z,10.65
2018-07-21T08:12:51.911Z,11.25
2018-07-21T08:13:55.872Z,11.28
2018-07-21T08:15:00.155Z,11.25
2018-07-21T08:16:04.050Z,10.70
2018-07-21T08:17:07.973Z,10.93
2018-07-21T08:18:12.634Z,10.90
2018-07-21T08:19:16.888Z,11.88
2018-07-21T08:20:21.369Z,11.75
2018-07-21T08:21:25.222Z,10.90
2018-07-21T08:22:29.038Z,12.23
2018-07-21T08:23:33.011Z,11.12
2018-07-21T08:24:37.041Z,11.95
2018-07-21T08:25:40.830Z,10.93
2018-07-21T08:26:44.836Z,11.03
2018-07-21T08:27:48.819Z,11.48
2018-07-21T08:28:53.648Z,11.33
2018-07-21T08:29:57.662Z,10.70
2018-07-21T08:31:02.385Z,10.43
2018-07-21T08:32:06.911Z,9.83
2018-07-21T08:33:10.860Z,10.78
2018-07-21T08:34:15.216Z,10.68
2018-07-21T08:35:19.604Z,11.75
2018-07-21T08:36:23.313Z,11.70
2018-07-21T08:37:27.428Z,12.05
2018-07-21T08:38:32.224Z,11.65
2018-07-21T08:39:36.011Z,12.35
2018-07-21T08:40:40.244Z,11.85
2018-07-21T08:41:44.601Z,11.53
2018-07-21T08:42:48.853Z,11.25
2018-07-21T08:43:52.928Z,11.90
2018-07-21T08:44:56.855Z,11.20
2018-07-21T08:46:00.903Z,12.28
2018-07-21T08:47:05.089Z,10.93
2018-07-21T08:48:09.404Z,11.65
2018-07-21T08:49:14.135Z,11.73
2018-07-21T08:50:18.196Z,12.00
2018-07-21T08:51:22.072Z,12.47
2018-07-21T08:52:25.996Z,11.15
2018-07-21T08:53:30.410Z,12.45
2018-07-21T08:54:34.767Z,11.45
2018-07-21T08:55:38.757Z,12.30
2018-07-21T08:56:42.631Z,11.80
2018-07-21T08:57:47.546Z,12.18
2018-07-21T08:58:51.963Z,11.90
2018-07-21T08:59:56.013Z,11.73
2018-07-21T09:01:00.097Z,13.43
2018-07-21T09:02:04.303Z,12.25
2018-07-21T09:03:08.263Z,12.45
2018-07-21T09:04:12.482Z,12.37
2018-07-21T09:05:16.341Z,12.30
2018-07-21T09:06:20.682Z,12.00
2018-07-21T09:07:24.831Z,11.63
2018-07-21T09:08:28.834Z,10.82
2018-07-21T09:09:33.227Z,11.10
2018-07-21T09:10:37.340Z,12.70
2018-07-21T09:11:41.844Z,12.18
2018-07-21T09:12:46.012Z,12.50
2018-07-21T09:13:52.516Z,12.30
2018-07-21T09:14:56.901Z,11.78
2018-07-21T09:16:01.028Z,11.85
2018-07-21T09:17:05.248Z,11.30
2018-07-21T09:18:09.223Z,10.53
2018-07-21T09:19:14.093Z,11.73
2018-07-21T09:20:18.010Z,10.80
2018-07-21T09:21:22.439Z,12.75
2018-07-21T09:22:26.895Z,14.20
2018-07-21T09:23:31.139Z,13.68
2018-07-21T09:24:36.189Z,12.85
2018-07-21T09:25:39.972Z,11.45
2018-07-21T09:26:44.415Z,12.13
2018-07-21T09:27:48.576Z,10.82
2018-07-21T09:28:53.186Z,11.60
2018-07-21T09:29:57.456Z,12.28
2018-07-21T09:31:01.527Z,11.00
2018-07-21T09:32:05.135Z,10.72
2018-07-21T09:33:09.438Z,10.63
2018-07-21T09:34:13.747Z,11.95
2018-07-21T09:35:17.871Z,11.22
2018-07-21T09:36:22.596Z,11.48
2018-07-21T09:37:26.433Z,11.73
2018-07-21T09:38:31.613Z,11.35
2018-07-21T09:39:35.273Z,11.35
2018-07-21T09:40:38.908Z,11.85
2018-07-21T09:41:43.187Z,11.00
2018-07-21T09:42:46.824Z,11.45
2018-07-21T09:43:51.585Z,11.35
2018-07-21T09:44:56.124Z,11.68
2018-07-21T09:46:00.399Z,11.35
2018-07-21T09:47:04.401Z,11.78
2018-07-21T09:48:08.016Z,11.85
2018-07-21T09:49:12.352Z,11.85
2018-07-21T09:50:15.882Z,12.40
2018-07-21T09:51:19.457Z,12.95
2018-07-21T09:52:23.064Z,12.75
2018-07-21T09:53:26.533Z,11.68
2018-07-21T09:54:30.100Z,12.03
2018-07-21T09:55:33.654Z,11.57
2018-07-21T09:56:37.599Z,11.63
2018-07-21T09:57:40.997Z,12.45
2018-07-21T09:58:45.113Z,11.03
2018-07-21T09:59:49.235Z,10.85
2018-07-21T10:00:59.426Z,10.48
2018-07-21T10:02:02.937Z,10.10
2018-07-21T10:03:06.525Z,10.43
2018-07-21T10:04:10.046Z,10.03
2018-07-21T10:05:14.444Z,9.53
2018-07-21T10:06:17.935Z,9.33
2018-07-21T10:07:21.572Z,10.43
2018-07-21T10:08:25.268Z,9.45
2018-07-21T10:09:29.478Z,9.10
2018-07-21T10:10:33.394Z,9.63
2018-07-21T10:11:36.954Z,9.63
2018-07-21T10:12:41.384Z,8.83
2018-07-21T10:13:45.027Z,10.32
2018-07-21T10:14:48.576Z,10.55
2018-07-21T10:15:52.044Z,10.43
2018-07-21T10:16:55.551Z,10.18
2018-07-21T10:17:59.061Z,9.98
2018-07-21T10:19:02.724Z,9.98
2018-07-21T10:20:06.535Z,9.55
2018-07-21T10:21:10.036Z,9.68
2018-07-21T10:22:14.350Z,9.95
2018-07-21T10:23:17.919Z,10.23
2018-07-21T10:24:26.758Z,9.58
2018-07-21T10:25:35.563Z,9.73
2018-07-21T10:26:44.522Z,9.05
2018-07-21T10:27:53.457Z,8.95
2018-07-21T10:29:02.380Z,9.83
2018-07-21T10:30:06.348Z,8.78
2018-07-21T10:31:10.236Z,9.20
2018-07-21T10:32:14.288Z,9.68
2018-07-21T10:33:18.001Z,9.33
2018-07-21T10:34:21.801Z,8.60
2018-07-21T10:35:25.424Z,7.50
2018-07-21T10:36:29.251Z,7.28
2018-07-21T10:37:33.007Z,7.97
2018-07-21T10:38:36.510Z,8.40
2018-07-21T10:39:40.111Z,7.70
2018-07-21T10:40:43.316Z,7.85
2018-07-21T10:41:46.683Z,7.30
2018-07-21T10:42:50.210Z,7.78
2018-07-21T10:43:54.034Z,8.18
2018-07-21T10:44:58.211Z,7.47
2018-07-21T10:46:01.721Z,6.92
2018-07-21T10:47:05.322Z,8.15
2018-07-21T10:48:09.951Z,8.30
2018-07-21T10:49:14.120Z,7.87
2018-07-21T10:50:17.654Z,7.58
2018-07-21T10:51:21.586Z,7.30
2018-07-21T10:52:25.753Z,8.05
2018-07-21T10:53:29.507Z,7.03
2018-07-21T10:54:33.073Z,7.85
2018-07-21T10:55:36.630Z,7.90
2018-07-21T10:56:40.243Z,7.92
2018-07-21T10:57:44.153Z,8.53
2018-07-21T10:58:48.093Z,7.67
2018-07-21T10:59:51.754Z,8.43
2018-07-21T11:00:55.571Z,8.23
2018-07-21T11:01:59.189Z,7.33
2018-07-21T11:03:02.754Z,7.45
2018-07-21T11:04:06.408Z,7.40
2018-07-21T11:05:10.503Z,7.95
2018-07-21T11:06:14.050Z,7.60
2018-07-21T11:07:17.568Z,7.42
2018-07-21T11:08:22.274Z,7.30
2018-07-21T11:09:25.767Z,8.20
2018-07-21T11:10:29.324Z,7.08
2018-07-21T11:11:32.877Z,7.60
2018-07-21T11:12:36.390Z,6.87
2018-07-21T11:13:40.357Z,7.60
2018-07-21T11:14:43.890Z,7.53
2018-07-21T11:15:47.485Z,8.30
2018-07-21T11:16:52.008Z,7.50
2018-07-21T11:17:55.504Z,7.90
2018-07-21T11:18:59.460Z,7.53
2018-07-21T11:20:03.217Z,7.62
2018-07-21T11:21:07.467Z,7.58
2018-07-21T11:22:11.444Z,7.53
2018-07-21T11:23:15.201Z,7.37
2018-07-21T11:24:18.885Z,7.37
2018-07-21T11:25:22.781Z,7.25
2018-07-21T11:26:26.387Z,6.85
2018-07-21T11:27:30.047Z,7.17
2018-07-21T11:28:33.704Z,7.10
2018-07-21T11:29:37.374Z,7.30
2018-07-21T11:30:41.153Z,7.20
2018-07-21T11:31:44.748Z,8.30
2018-07-21T11:32:48.390Z,7.78
2018-07-21T11:33:52.645Z,7.62
2018-07-21T11:34:56.342Z,7.95
2018-07-21T11:36:00.770Z,7.65
2018-07-21T11:37:04.135Z,7.17
2018-07-21T11:38:08.191Z,6.80
2018-07-21T11:39:11.787Z,7.55
2018-07-21T11:40:15.306Z,7.40
2018-07-21T11:41:19.842Z,7.12
2018-07-21T11:42:23.527Z,8.20
2018-07-21T11:43:27.083Z,6.92
2018-07-21T11:44:30.835Z,7.22
2018-07-21T11:45:34.397Z,7.35
2018-07-21T11:46:38.473Z,6.85
2018-07-21T11:47:42.219Z,7.37
2018-07-21T11:48:45.932Z,7.08
2018-07-21T11:49:49.654Z,7.37
2018-07-21T11:50:53.300Z,7.67
2018-07-21T11:51:56.815Z,7.50
2018-07-21T11:53:01.060Z,6.83
2018-07-21T11:54:05.243Z,7.12
2018-07-21T11:55:08.772Z,7.20
2018-07-21T11:56:12.885Z,6.55
2018-07-21T11:57:17.067Z,7.20
2018-07-21T11:58:20.699Z,7.03
2018-07-21T11:59:24.642Z,8.13
2018-07-21T12:00:28.205Z,7.58
2018-07-21T12:01:32.016Z,8.13
2018-07-21T12:02:36.263Z,7.67
2018-07-21T12:03:39.793Z,7.75
2018-07-21T12:04:43.344Z,7.62
2018-07-21T12:05:46.949Z,8.00
2018-07-21T12:06:50.371Z,7.85
2018-07-21T12:07:54.279Z,7.97
2018-07-21T12:08:57.894Z,7.17
2018-07-21T12:10:01.446Z,7.37
2018-07-21T12:11:05.588Z,8.85
2018-07-21T12:12:09.565Z,8.95
2018-07-21T12:13:13.619Z,8.63
2018-07-21T12:14:17.663Z,8.10
2018-07-21T12:15:22.249Z,8.83
2018-07-21T12:16:25.956Z,9.08
2018-07-21T12:17:29.527Z,8.33
2018-07-21T12:18:33.030Z,8.63
2018-07-21T12:19:36.927Z,8.83
2018-07-21T12:20:41.391Z,8.25
2018-07-21T12:21:44.969Z,8.13
2018-07-21T12:22:48.558Z,8.38
2018-07-21T12:23:52.150Z,7.78
2018-07-21T12:24:55.844Z,7.90
2018-07-21T12:25:59.373Z,8.63
2018-07-21T12:27:02.966Z,8.55
2018-07-21T12:28:06.621Z,7.85
2018-07-21T12:29:10.217Z,8.28
2018-07-21T12:30:13.924Z,7.78
2018-07-21T12:31:18.337Z,9.55
2018-07-21T12:32:22.023Z,7.80
2018-07-21T12:33:25.905Z,7.92
2018-07-21T12:34:29.642Z,8.50
2018-07-21T12:35:33.737Z,9.03
2018-07-21T12:36:37.396Z,8.33
2018-07-21T12:37:41.454Z,8.43
2018-07-21T12:38:44.923Z,7.97
2018-07-21T12:39:49.105Z,8.48
2018-07-21T12:40:52.730Z,9.63
2018-07-21T12:41:56.680Z,9.30
2018-07-21T12:43:00.335Z,9.05
2018-07-21T12:44:04.009Z,9.88
2018-07-21T12:45:07.824Z,8.63
2018-07-21T12:46:11.417Z,8.48
2018-07-21T12:47:15.673Z,9.90
2018-07-21T12:48:20.016Z,9.08
2018-07-21T12:49:23.691Z,8.55
2018-07-21T12:50:27.289Z,8.55
2018-07-21T12:51:31.030Z,9.58
2018-07-21T12:52:34.705Z,8.75
2018-07-21T12:53:38.298Z,8.48
2018-07-21T12:54:42.086Z,8.38
2018-07-21T12:55:45.669Z,9.83
2018-07-21T12:56:49.255Z,8.95
2018-07-21T12:57:52.821Z,8.15
2018-07-21T12:58:56.570Z,7.83
2018-07-21T13:00:00.214Z,8.08
2018-07-21T13:01:03.758Z,8.58
2018-07-21T13:02:07.446Z,8.93
2018-07-21T13:03:11.193Z,8.35
2018-07-21T13:04:14.876Z,7.90
2018-07-21T13:05:18.430Z,8.55
2018-07-21T13:06:22.476Z,8.30
2018-07-21T13:07:26.111Z,7.83
2018-07-21T13:08:30.254Z,7.90
2018-07-21T13:09:33.841Z,8.28
2018-07-21T13:10:37.455Z,8.13
2018-07-21T13:11:41.641Z,8.10
2018-07-21T13:12:45.269Z,7.92
2018-07-21T13:13:48.990Z,8.20
2018-07-21T13:14:52.515Z,8.05
2018-07-21T13:15:56.078Z,8.50
2018-07-21T13:17:00.073Z,8.20
2018-07-21T13:18:04.352Z,7.50
2018-07-21T13:19:08.380Z,8.78
2018-07-21T13:20:12.194Z,8.00
2018-07-21T13:21:15.745Z,7.97
2018-07-21T13:22:19.298Z,8.38
2018-07-21T13:23:23.061Z,8.00
2018-07-21T13:24:26.702Z,9.30
2018-07-21T13:25:30.219Z,8.13
2018-07-21T13:26:33.737Z,8.53
2018-07-21T13:27:37.272Z,8.65
2018-07-21T13:28:41.448Z,8.18
2018-07-21T13:29:44.991Z,7.85
2018-07-21T13:30:48.639Z,8.73
2018-07-21T13:31:53.208Z,7.83
2018-07-21T13:32:56.785Z,8.40
2018-07-21T13:34:00.529Z,8.43
2018-07-21T13:35:04.215Z,8.10
2018-07-21T13:36:07.829Z,8.68
2018-07-21T13:37:11.557Z,8.15
2018-07-21T13:38:15.097Z,8.83
2018-07-21T13:39:18.800Z,8.28
2018-07-21T13:40:22.999Z,8.38
2018-07-21T13:41:26.704Z,8.23
2018-07-21T13:42:30.330Z,8.88
2018-07-21T13:43:33.975Z,8.40
2018-07-21T13:44:37.582Z,8.43
2018-07-21T13:45:41.087Z,8.40
2018-07-21T13:46:44.686Z,8.38
2018-07-21T13:47:48.384Z,8.35
2018-07-21T13:48:52.006Z,8.10
2018-07-21T13:49:55.796Z,8.00
2018-07-21T13:50:59.345Z,7.95
2018-07-21T13:52:02.993Z,7.97
2018-07-21T13:53:06.659Z,7.33
2018-07-21T13:54:10.668Z,8.23
2018-07-21T13:55:14.234Z,8.00
2018-07-21T13:56:18.564Z,7.97
2018-07-21T13:57:22.812Z,8.18
2018-07-21T13:58:26.326Z,8.08
2018-07-21T13:59:29.949Z,9.08
2018-07-21T14:00:33.484Z,7.80
2018-07-21T14:01:37.141Z,7.67
2018-07-21T14:02:41.603Z,8.73
2018-07-21T14:03:45.158Z,8.15
2018-07-21T14:04:48.856Z,8.08
2018-07-21T14:05:52.450Z,7.70
2018-07-21T14:06:55.974Z,8.38
2018-07-21T14:07:59.433Z,7.95
2018-07-21T14:09:04.544Z,7.58
2018-07-21T14:10:08.253Z,8.00
2018-07-21T14:11:12.053Z,8.18
2018-07-21T14:12:15.517Z,7.80